sensor_id;sensor_type;location;lat;lon;timestamp;P1;durP1;ratioP1;P2;durP2;ratioP2
21036;SDS011;10677;50.942;4.028;2022-09-16T00:01:11;8.27;;;1.25;;
21036;SDS011;10677;50.942;4.028;2022-09-16T00:03:40;4.78;;;1.30;;
21036;SDS011;10677;50.942;4.028;2022-09-16T00:06:06;8.73;;;1.55;;
21036;SDS011;10677;50.942;4.028;2022-09-16T00:08:41;7.13;;;1.20;;
21036;SDS011;10677;50.942;4.028;2022-09-16T00:11:09;8.05;;;1.58;;
21036;SDS011;10677;50.942;4.028;2022-09-16T00:13:35;5.18;;;1.02;;
21036;SDS011;10677;50.942;4.028;2022-09-16T00:16:01;5.70;;;1.30;;
21036;SDS011;10677;50.942;4.028;2022-09-16T00:18:30;5.80;;;1.60;;
21036;SDS011;10677;50.942;4.028;2022-09-16T00:20:56;6.63;;;1.88;;
21036;SDS011;10677;50.942;4.028;2022-09-16T00:23:21;8.77;;;1.88;;
21036;SDS011;10677;50.942;4.028;2022-09-16T00:25:51;10.98;;;1.70;;
21036;SDS011;10677;50.942;4.028;2022-09-16T00:28:18;7.68;;;1.10;;
21036;SDS011;10677;50.942;4.028;2022-09-16T00:30:45;4.97;;;0.93;;
21036;SDS011;10677;50.942;4.028;2022-09-16T00:33:11;6.70;;;1.35;;
21036;SDS011;10677;50.942;4.028;2022-09-16T00:35:37;5.75;;;1.20;;
21036;SDS011;10677;50.942;4.028;2022-09-16T00:38:03;5.10;;;1.35;;
21036;SDS011;10677;50.942;4.028;2022-09-16T00:40:28;5.80;;;1.00;;
21036;SDS011;10677;50.942;4.028;2022-09-16T00:42:54;4.43;;;1.00;;
21036;SDS011;10677;50.942;4.028;2022-09-16T00:45:23;6.88;;;1.27;;
21036;SDS011;10677;50.942;4.028;2022-09-16T00:48:00;8.18;;;1.27;;
21036;SDS011;10677;50.942;4.028;2022-09-16T00:50:40;5.18;;;1.40;;
21036;SDS011;10677;50.942;4.028;2022-09-16T00:53:14;3.65;;;0.90;;
21036;SDS011;10677;50.942;4.028;2022-09-16T00:55:42;3.97;;;1.25;;
21036;SDS011;10677;50.942;4.028;2022-09-16T00:58:13;9.20;;;1.20;;
21036;SDS011;10677;50.942;4.028;2022-09-16T01:00:46;7.57;;;1.33;;
21036;SDS011;10677;50.942;4.028;2022-09-16T01:03:12;5.40;;;1.30;;
21036;SDS011;10677;50.942;4.028;2022-09-16T01:05:37;7.45;;;1.10;;
21036;SDS011;10677;50.942;4.028;2022-09-16T01:08:04;4.07;;;1.10;;
21036;SDS011;10677;50.942;4.028;2022-09-16T01:10:29;6.43;;;1.23;;
21036;SDS011;10677;50.942;4.028;2022-09-16T01:12:58;4.93;;;1.02;;
21036;SDS011;10677;50.942;4.028;2022-09-16T01:15:53;2.75;;;0.85;;
21036;SDS011;10677;50.942;4.028;2022-09-16T01:21:24;6.18;;;1.48;;
21036;SDS011;10677;50.942;4.028;2022-09-16T01:34:59;3.10;;;0.80;;
21036;SDS011;10677;50.942;4.028;2022-09-16T01:41:07;6.20;;;0.82;;
21036;SDS011;10677;50.942;4.028;2022-09-16T01:43:46;3.97;;;1.00;;
21036;SDS011;10677;50.942;4.028;2022-09-16T01:49:15;11.05;;;1.35;;
21036;SDS011;10677;50.942;4.028;2022-09-16T01:51:56;4.75;;;0.88;;
21036;SDS011;10677;50.942;4.028;2022-09-16T01:54:58;4.45;;;1.10;;
21036;SDS011;10677;50.942;4.028;2022-09-16T01:57:28;7.00;;;0.90;;
21036;SDS011;10677;50.942;4.028;2022-09-16T02:00:17;2.85;;;0.80;;
21036;SDS011;10677;50.942;4.028;2022-09-16T02:02:45;7.50;;;1.15;;
21036;SDS011;10677;50.942;4.028;2022-09-16T02:06:13;4.90;;;0.80;;
21036;SDS011;10677;50.942;4.028;2022-09-16T02:08:43;6.35;;;1.00;;
21036;SDS011;10677;50.942;4.028;2022-09-16T02:11:14;5.32;;;1.27;;
21036;SDS011;10677;50.942;4.028;2022-09-16T02:14:04;8.95;;;1.35;;
21036;SDS011;10677;50.942;4.028;2022-09-16T02:16:48;4.38;;;0.75;;
21036;SDS011;10677;50.942;4.028;2022-09-16T02:19:19;7.05;;;1.15;;
21036;SDS011;10677;50.942;4.028;2022-09-16T02:21:49;6.50;;;0.93;;
21036;SDS011;10677;50.942;4.028;2022-09-16T02:24:17;4.53;;;0.82;;
21036;SDS011;10677;50.942;4.028;2022-09-16T02:26:46;4.57;;;0.80;;
21036;SDS011;10677;50.942;4.028;2022-09-16T02:29:17;6.22;;;0.98;;
21036;SDS011;10677;50.942;4.028;2022-09-16T02:31:46;6.07;;;0.88;;
21036;SDS011;10677;50.942;4.028;2022-09-16T02:34:17;5.55;;;0.93;;
21036;SDS011;10677;50.942;4.028;2022-09-16T02:36:46;4.78;;;0.80;;
21036;SDS011;10677;50.942;4.028;2022-09-16T02:39:21;3.05;;;0.82;;
21036;SDS011;10677;50.942;4.028;2022-09-16T02:41:52;4.68;;;0.90;;
21036;SDS011;10677;50.942;4.028;2022-09-16T02:44:19;4.70;;;0.98;;
21036;SDS011;10677;50.942;4.028;2022-09-16T02:49:37;4.20;;;0.80;;
21036;SDS011;10677;50.942;4.028;2022-09-16T02:55:02;4.70;;;1.20;;
21036;SDS011;10677;50.942;4.028;2022-09-16T02:57:30;4.80;;;1.33;;
21036;SDS011;10677;50.942;4.028;2022-09-16T02:59:56;4.80;;;0.70;;
21036;SDS011;10677;50.942;4.028;2022-09-16T03:02:22;4.30;;;0.88;;
21036;SDS011;10677;50.942;4.028;2022-09-16T03:04:48;8.77;;;1.15;;
21036;SDS011;10677;50.942;4.028;2022-09-16T03:07:13;4.90;;;0.95;;
21036;SDS011;10677;50.942;4.028;2022-09-16T03:09:41;3.50;;;0.80;;
21036;SDS011;10677;50.942;4.028;2022-09-16T03:12:24;5.45;;;0.98;;
21036;SDS011;10677;50.942;4.028;2022-09-16T03:37:26;5.28;;;1.20;;
21036;SDS011;10677;50.942;4.028;2022-09-16T03:39:57;5.55;;;0.90;;
21036;SDS011;10677;50.942;4.028;2022-09-16T03:42:26;7.20;;;0.82;;
21036;SDS011;10677;50.942;4.028;2022-09-16T03:44:52;5.13;;;1.17;;
21036;SDS011;10677;50.942;4.028;2022-09-16T03:47:18;4.78;;;0.90;;
21036;SDS011;10677;50.942;4.028;2022-09-16T03:49:43;4.97;;;1.10;;
21036;SDS011;10677;50.942;4.028;2022-09-16T03:52:09;6.60;;;1.10;;
21036;SDS011;10677;50.942;4.028;2022-09-16T03:54:35;3.80;;;0.93;;
21036;SDS011;10677;50.942;4.028;2022-09-16T03:57:01;7.13;;;1.60;;
21036;SDS011;10677;50.942;4.028;2022-09-16T03:59:28;3.95;;;0.90;;
21036;SDS011;10677;50.942;4.028;2022-09-16T04:01:54;3.70;;;1.02;;
21036;SDS011;10677;50.942;4.028;2022-09-16T04:04:20;6.35;;;1.40;;
21036;SDS011;10677;50.942;4.028;2022-09-16T04:06:46;4.45;;;0.90;;
21036;SDS011;10677;50.942;4.028;2022-09-16T04:09:11;3.22;;;0.90;;
21036;SDS011;10677;50.942;4.028;2022-09-16T04:11:38;5.95;;;1.02;;
21036;SDS011;10677;50.942;4.028;2022-09-16T04:14:04;5.15;;;1.13;;
21036;SDS011;10677;50.942;4.028;2022-09-16T04:16:31;8.02;;;0.90;;
21036;SDS011;10677;50.942;4.028;2022-09-16T04:18:57;8.95;;;1.55;;
21036;SDS011;10677;50.942;4.028;2022-09-16T04:21:23;6.47;;;1.00;;
21036;SDS011;10677;50.942;4.028;2022-09-16T04:23:49;2.75;;;0.85;;
21036;SDS011;10677;50.942;4.028;2022-09-16T04:26:15;5.50;;;0.80;;
21036;SDS011;10677;50.942;4.028;2022-09-16T04:28:41;3.15;;;0.80;;
21036;SDS011;10677;50.942;4.028;2022-09-16T04:31:09;4.97;;;0.95;;
21036;SDS011;10677;50.942;4.028;2022-09-16T04:33:36;8.50;;;1.42;;
21036;SDS011;10677;50.942;4.028;2022-09-16T04:38:48;6.38;;;0.88;;
21036;SDS011;10677;50.942;4.028;2022-09-16T04:41:18;8.65;;;1.25;;
21036;SDS011;10677;50.942;4.028;2022-09-16T04:43:45;6.45;;;1.15;;
21036;SDS011;10677;50.942;4.028;2022-09-16T04:46:16;6.50;;;1.00;;
21036;SDS011;10677;50.942;4.028;2022-09-16T04:48:45;5.32;;;1.00;;
21036;SDS011;10677;50.942;4.028;2022-09-16T04:51:11;4.57;;;0.90;;
21036;SDS011;10677;50.942;4.028;2022-09-16T04:53:37;4.95;;;1.20;;
21036;SDS011;10677;50.942;4.028;2022-09-16T04:56:08;4.50;;;0.90;;
21036;SDS011;10677;50.942;4.028;2022-09-16T04:58:39;7.60;;;1.10;;
21036;SDS011;10677;50.942;4.028;2022-09-16T05:01:10;6.60;;;1.05;;
21036;SDS011;10677;50.942;4.028;2022-09-16T05:03:41;8.00;;;0.93;;
21036;SDS011;10677;50.942;4.028;2022-09-16T05:06:08;2.92;;;0.90;;
21036;SDS011;10677;50.942;4.028;2022-09-16T05:08:35;6.82;;;1.15;;
21036;SDS011;10677;50.942;4.028;2022-09-16T05:11:02;5.50;;;0.90;;
21036;SDS011;10677;50.942;4.028;2022-09-16T05:13:29;3.45;;;0.80;;
21036;SDS011;10677;50.942;4.028;2022-09-16T05:15:59;4.32;;;0.98;;
21036;SDS011;10677;50.942;4.028;2022-09-16T05:18:25;4.78;;;0.85;;
21036;SDS011;10677;50.942;4.028;2022-09-16T05:20:55;7.03;;;1.25;;
21036;SDS011;10677;50.942;4.028;2022-09-16T05:23:25;4.47;;;1.05;;
21036;SDS011;10677;50.942;4.028;2022-09-16T05:25:51;4.63;;;1.00;;
21036;SDS011;10677;50.942;4.028;2022-09-16T05:28:17;3.90;;;1.00;;
21036;SDS011;10677;50.942;4.028;2022-09-16T05:30:42;5.97;;;1.17;;
21036;SDS011;10677;50.942;4.028;2022-09-16T05:33:08;3.72;;;0.82;;
21036;SDS011;10677;50.942;4.028;2022-09-16T05:35:34;5.88;;;1.10;;
21036;SDS011;10677;50.942;4.028;2022-09-16T05:37:59;2.33;;;0.82;;
21036;SDS011;10677;50.942;4.028;2022-09-16T05:40:25;2.75;;;0.73;;
21036;SDS011;10677;50.942;4.028;2022-09-16T05:42:53;3.40;;;0.90;;
21036;SDS011;10677;50.942;4.028;2022-09-16T05:45:19;4.82;;;0.98;;
21036;SDS011;10677;50.942;4.028;2022-09-16T05:47:48;6.03;;;0.90;;
21036;SDS011;10677;50.942;4.028;2022-09-16T05:50:14;4.72;;;0.90;;
21036;SDS011;10677;50.942;4.028;2022-09-16T05:52:40;4.28;;;1.08;;
21036;SDS011;10677;50.942;4.028;2022-09-16T05:55:06;3.78;;;1.10;;
21036;SDS011;10677;50.942;4.028;2022-09-16T05:57:32;4.03;;;0.70;;
21036;SDS011;10677;50.942;4.028;2022-09-16T05:59:58;6.05;;;0.77;;
21036;SDS011;10677;50.942;4.028;2022-09-16T06:02:23;8.20;;;0.73;;
21036;SDS011;10677;50.942;4.028;2022-09-16T06:04:49;4.68;;;1.00;;
21036;SDS011;10677;50.942;4.028;2022-09-16T06:07:15;6.30;;;1.13;;
21036;SDS011;10677;50.942;4.028;2022-09-16T06:09:41;2.80;;;0.60;;
21036;SDS011;10677;50.942;4.028;2022-09-16T06:12:07;3.75;;;0.60;;
21036;SDS011;10677;50.942;4.028;2022-09-16T06:14:34;6.97;;;0.65;;
21036;SDS011;10677;50.942;4.028;2022-09-16T06:16:59;3.50;;;0.60;;
21036;SDS011;10677;50.942;4.028;2022-09-16T06:19:26;2.78;;;0.60;;
21036;SDS011;10677;50.942;4.028;2022-09-16T06:21:52;8.02;;;0.80;;
21036;SDS011;10677;50.942;4.028;2022-09-16T06:24:18;6.32;;;0.60;;
21036;SDS011;10677;50.942;4.028;2022-09-16T06:26:45;4.00;;;0.95;;
21036;SDS011;10677;50.942;4.028;2022-09-16T06:29:12;3.17;;;0.60;;
21036;SDS011;10677;50.942;4.028;2022-09-16T06:31:39;3.80;;;0.60;;
21036;SDS011;10677;50.942;4.028;2022-09-16T06:34:05;2.22;;;0.38;;
21036;SDS011;10677;50.942;4.028;2022-09-16T06:36:36;3.25;;;0.75;;
21036;SDS011;10677;50.942;4.028;2022-09-16T06:39:03;2.75;;;0.50;;
21036;SDS011;10677;50.942;4.028;2022-09-16T06:41:33;4.32;;;0.80;;
21036;SDS011;10677;50.942;4.028;2022-09-16T06:43:59;4.03;;;0.80;;
21036;SDS011;10677;50.942;4.028;2022-09-16T06:46:28;3.70;;;0.50;;
21036;SDS011;10677;50.942;4.028;2022-09-16T06:48:55;2.58;;;0.45;;
21036;SDS011;10677;50.942;4.028;2022-09-16T06:51:22;2.88;;;0.80;;
21036;SDS011;10677;50.942;4.028;2022-09-16T06:53:50;2.70;;;0.60;;
21036;SDS011;10677;50.942;4.028;2022-09-16T06:56:18;4.47;;;0.70;;
21036;SDS011;10677;50.942;4.028;2022-09-16T06:58:45;5.10;;;0.70;;
21036;SDS011;10677;50.942;4.028;2022-09-16T07:01:14;3.90;;;0.45;;
21036;SDS011;10677;50.942;4.028;2022-09-16T07:03:43;4.32;;;0.90;;
21036;SDS011;10677;50.942;4.028;2022-09-16T07:06:12;4.95;;;0.80;;
21036;SDS011;10677;50.942;4.028;2022-09-16T07:08:39;12.07;;;0.88;;
21036;SDS011;10677;50.942;4.028;2022-09-16T07:11:38;3.05;;;0.60;;
21036;SDS011;10677;50.942;4.028;2022-09-16T07:13:57;3.20;;;0.55;;
21036;SDS011;10677;50.942;4.028;2022-09-16T07:16:24;6.78;;;0.80;;
21036;SDS011;10677;50.942;4.028;2022-09-16T07:18:54;3.58;;;0.52;;
21036;SDS011;10677;50.942;4.028;2022-09-16T07:21:22;5.18;;;0.60;;
21036;SDS011;10677;50.942;4.028;2022-09-16T07:23:53;2.83;;;0.63;;
21036;SDS011;10677;50.942;4.028;2022-09-16T07:26:23;3.90;;;0.85;;
21036;SDS011;10677;50.942;4.028;2022-09-16T07:28:50;3.50;;;0.80;;
21036;SDS011;10677;50.942;4.028;2022-09-16T07:31:21;3.35;;;0.77;;
21036;SDS011;10677;50.942;4.028;2022-09-16T07:33:55;6.68;;;0.98;;
21036;SDS011;10677;50.942;4.028;2022-09-16T07:36:23;8.00;;;2.92;;
21036;SDS011;10677;50.942;4.028;2022-09-16T07:38:50;2.90;;;0.88;;
21036;SDS011;10677;50.942;4.028;2022-09-16T07:41:17;2.38;;;0.60;;
21036;SDS011;10677;50.942;4.028;2022-09-16T07:43:47;4.15;;;0.65;;
21036;SDS011;10677;50.942;4.028;2022-09-16T07:46:14;3.58;;;0.70;;
21036;SDS011;10677;50.942;4.028;2022-09-16T07:48:44;5.15;;;1.35;;
21036;SDS011;10677;50.942;4.028;2022-09-16T07:51:13;3.85;;;0.68;;
21036;SDS011;10677;50.942;4.028;2022-09-16T07:53:40;4.82;;;0.77;;
21036;SDS011;10677;50.942;4.028;2022-09-16T07:56:07;2.72;;;0.93;;
21036;SDS011;10677;50.942;4.028;2022-09-16T07:58:39;3.22;;;0.65;;
21036;SDS011;10677;50.942;4.028;2022-09-16T08:01:05;4.95;;;0.75;;
21036;SDS011;10677;50.942;4.028;2022-09-16T08:03:38;5.75;;;0.70;;
21036;SDS011;10677;50.942;4.028;2022-09-16T08:06:05;4.45;;;0.90;;
21036;SDS011;10677;50.942;4.028;2022-09-16T08:08:32;4.90;;;1.05;;
21036;SDS011;10677;50.942;4.028;2022-09-16T08:10:58;4.50;;;0.80;;
21036;SDS011;10677;50.942;4.028;2022-09-16T08:13:25;4.13;;;1.08;;
21036;SDS011;10677;50.942;4.028;2022-09-16T08:15:53;8.20;;;1.20;;
21036;SDS011;10677;50.942;4.028;2022-09-16T08:18:19;3.08;;;0.93;;
21036;SDS011;10677;50.942;4.028;2022-09-16T08:20:45;5.18;;;1.00;;
21036;SDS011;10677;50.942;4.028;2022-09-16T08:23:10;9.18;;;1.30;;
21036;SDS011;10677;50.942;4.028;2022-09-16T08:25:38;5.18;;;1.00;;
21036;SDS011;10677;50.942;4.028;2022-09-16T08:28:04;5.93;;;1.10;;
21036;SDS011;10677;50.942;4.028;2022-09-16T08:30:32;5.35;;;1.20;;
21036;SDS011;10677;50.942;4.028;2022-09-16T08:32:58;5.60;;;1.52;;
21036;SDS011;10677;50.942;4.028;2022-09-16T08:35:26;5.55;;;1.08;;
21036;SDS011;10677;50.942;4.028;2022-09-16T08:37:52;6.82;;;1.10;;
21036;SDS011;10677;50.942;4.028;2022-09-16T08:40:19;6.97;;;1.50;;
21036;SDS011;10677;50.942;4.028;2022-09-16T08:46:13;6.47;;;0.90;;
21036;SDS011;10677;50.942;4.028;2022-09-16T08:48:28;7.93;;;1.17;;
21036;SDS011;10677;50.942;4.028;2022-09-16T08:51:17;6.65;;;1.63;;
21036;SDS011;10677;50.942;4.028;2022-09-16T08:53:56;8.73;;;1.40;;
21036;SDS011;10677;50.942;4.028;2022-09-16T08:56:27;5.70;;;0.90;;
21036;SDS011;10677;50.942;4.028;2022-09-16T08:58:58;4.10;;;1.08;;
21036;SDS011;10677;50.942;4.028;2022-09-16T09:01:40;4.68;;;0.80;;
21036;SDS011;10677;50.942;4.028;2022-09-16T09:04:11;6.75;;;1.23;;
21036;SDS011;10677;50.942;4.028;2022-09-16T09:12:08;3.47;;;0.98;;
21036;SDS011;10677;50.942;4.028;2022-09-16T09:20:19;7.40;;;1.63;;
21036;SDS011;10677;50.942;4.028;2022-09-16T09:48:17;8.02;;;1.10;;
21036;SDS011;10677;50.942;4.028;2022-09-16T09:56:03;4.53;;;0.98;;
21036;SDS011;10677;50.942;4.028;2022-09-16T09:58:55;2.80;;;0.60;;
21036;SDS011;10677;50.942;4.028;2022-09-16T10:01:21;1.25;;;0.55;;
21036;SDS011;10677;50.942;4.028;2022-09-16T10:03:47;1.23;;;0.43;;
21036;SDS011;10677;50.942;4.028;2022-09-16T10:06:14;4.18;;;0.80;;
21036;SDS011;10677;50.942;4.028;2022-09-16T10:08:49;1.55;;;0.60;;
21036;SDS011;10677;50.942;4.028;2022-09-16T10:11:20;3.80;;;0.82;;
21036;SDS011;10677;50.942;4.028;2022-09-16T10:13:48;5.15;;;0.60;;
21036;SDS011;10677;50.942;4.028;2022-09-16T10:16:31;3.05;;;0.70;;
21036;SDS011;10677;50.942;4.028;2022-09-16T10:19:05;4.28;;;0.50;;
21036;SDS011;10677;50.942;4.028;2022-09-16T10:21:41;3.08;;;0.70;;
21036;SDS011;10677;50.942;4.028;2022-09-16T10:24:24;5.97;;;0.73;;
21036;SDS011;10677;50.942;4.028;2022-09-16T10:26:51;2.47;;;0.60;;
21036;SDS011;10677;50.942;4.028;2022-09-16T10:29:17;5.00;;;0.90;;
21036;SDS011;10677;50.942;4.028;2022-09-16T10:31:45;6.38;;;1.00;;
21036;SDS011;10677;50.942;4.028;2022-09-16T10:34:15;3.88;;;0.63;;
21036;SDS011;10677;50.942;4.028;2022-09-16T10:36:56;3.53;;;0.57;;
21036;SDS011;10677;50.942;4.028;2022-09-16T10:39:55;2.78;;;0.50;;
21036;SDS011;10677;50.942;4.028;2022-09-16T10:42:23;7.60;;;1.65;;
21036;SDS011;10677;50.942;4.028;2022-09-16T10:44:51;3.70;;;1.00;;
21036;SDS011;10677;50.942;4.028;2022-09-16T10:47:21;3.60;;;0.60;;
21036;SDS011;10677;50.942;4.028;2022-09-16T10:49:50;5.00;;;0.55;;
21036;SDS011;10677;50.942;4.028;2022-09-16T10:52:21;5.22;;;0.60;;
21036;SDS011;10677;50.942;4.028;2022-09-16T10:54:48;3.60;;;0.60;;
21036;SDS011;10677;50.942;4.028;2022-09-16T10:57:32;3.85;;;0.60;;
21036;SDS011;10677;50.942;4.028;2022-09-16T11:00:11;5.75;;;1.17;;
21036;SDS011;10677;50.942;4.028;2022-09-16T11:05:32;5.28;;;0.77;;
21036;SDS011;10677;50.942;4.028;2022-09-16T11:35:34;9.70;;;1.02;;
21036;SDS011;10677;50.942;4.028;2022-09-16T11:43:55;4.18;;;0.70;;
21036;SDS011;10677;50.942;4.028;2022-09-16T11:46:38;6.05;;;0.98;;
21036;SDS011;10677;50.942;4.028;2022-09-16T11:49:26;5.63;;;0.73;;
21036;SDS011;10677;50.942;4.028;2022-09-16T11:57:23;4.68;;;0.70;;
21036;SDS011;10677;50.942;4.028;2022-09-16T11:59:59;6.85;;;0.82;;
21036;SDS011;10677;50.942;4.028;2022-09-16T12:07:43;4.05;;;0.65;;
21036;SDS011;10677;50.942;4.028;2022-09-16T12:10:35;4.32;;;1.02;;
21036;SDS011;10677;50.942;4.028;2022-09-16T12:13:17;1.50;;;0.50;;
21036;SDS011;10677;50.942;4.028;2022-09-16T12:15:55;1.95;;;0.73;;
21036;SDS011;10677;50.942;4.028;2022-09-16T12:18:35;2.90;;;0.68;;
21036;SDS011;10677;50.942;4.028;2022-09-16T12:21:25;7.50;;;0.80;;
21036;SDS011;10677;50.942;4.028;2022-09-16T12:23:57;6.50;;;0.70;;
21036;SDS011;10677;50.942;4.028;2022-09-16T12:26:32;7.90;;;0.80;;
21036;SDS011;10677;50.942;4.028;2022-09-16T12:29:10;6.43;;;0.80;;
21036;SDS011;10677;50.942;4.028;2022-09-16T12:31:43;12.15;;;1.48;;
21036;SDS011;10677;50.942;4.028;2022-09-16T12:37:19;7.07;;;0.93;;
21036;SDS011;10677;50.942;4.028;2022-09-16T12:39:42;7.20;;;0.82;;
21036;SDS011;10677;50.942;4.028;2022-09-16T12:47:44;2.25;;;0.88;;
21036;SDS011;10677;50.942;4.028;2022-09-16T12:50:27;6.38;;;0.80;;
21036;SDS011;10677;50.942;4.028;2022-09-16T12:53:26;4.03;;;0.63;;
21036;SDS011;10677;50.942;4.028;2022-09-16T13:01:30;5.30;;;0.95;;
21036;SDS011;10677;50.942;4.028;2022-09-16T13:04:06;4.88;;;1.23;;
21036;SDS011;10677;50.942;4.028;2022-09-16T13:06:55;3.88;;;0.52;;
21036;SDS011;10677;50.942;4.028;2022-09-16T13:09:35;6.32;;;0.70;;
21036;SDS011;10677;50.942;4.028;2022-09-16T13:12:05;7.18;;;0.90;;
21036;SDS011;10677;50.942;4.028;2022-09-16T13:14:44;5.28;;;0.68;;
21036;SDS011;10677;50.942;4.028;2022-09-16T13:17:13;3.13;;;0.57;;
21036;SDS011;10677;50.942;4.028;2022-09-16T13:19:51;6.97;;;0.68;;
21036;SDS011;10677;50.942;4.028;2022-09-16T13:22:34;2.97;;;0.50;;
21036;SDS011;10677;50.942;4.028;2022-09-16T13:25:21;8.57;;;1.00;;
21036;SDS011;10677;50.942;4.028;2022-09-16T13:30:52;5.63;;;0.80;;
21036;SDS011;10677;50.942;4.028;2022-09-16T13:35:46;5.68;;;0.80;;
21036;SDS011;10677;50.942;4.028;2022-09-16T13:40:52;4.82;;;0.75;;
21036;SDS011;10677;50.942;4.028;2022-09-16T13:43:55;3.78;;;0.70;;
21036;SDS011;10677;50.942;4.028;2022-09-16T13:46:34;6.80;;;0.88;;
21036;SDS011;10677;50.942;4.028;2022-09-16T13:49:08;4.78;;;0.63;;
21036;SDS011;10677;50.942;4.028;2022-09-16T13:51:44;4.53;;;0.60;;
21036;SDS011;10677;50.942;4.028;2022-09-16T13:59:42;4.32;;;0.50;;
21036;SDS011;10677;50.942;4.028;2022-09-16T14:10:47;4.53;;;0.70;;
21036;SDS011;10677;50.942;4.028;2022-09-16T14:13:21;5.72;;;0.75;;
21036;SDS011;10677;50.942;4.028;2022-09-16T14:15:49;3.50;;;0.52;;
21036;SDS011;10677;50.942;4.028;2022-09-16T14:18:18;4.47;;;0.50;;
21036;SDS011;10677;50.942;4.028;2022-09-16T14:20:56;2.70;;;0.40;;
21036;SDS011;10677;50.942;4.028;2022-09-16T14:23:25;2.35;;;0.45;;
21036;SDS011;10677;50.942;4.028;2022-09-16T14:25:53;5.18;;;0.63;;
21036;SDS011;10677;50.942;4.028;2022-09-16T14:28:20;1.85;;;0.40;;
21036;SDS011;10677;50.942;4.028;2022-09-16T14:30:57;4.50;;;0.80;;
21036;SDS011;10677;50.942;4.028;2022-09-16T14:33:28;4.13;;;0.40;;
21036;SDS011;10677;50.942;4.028;2022-09-16T14:36:09;4.55;;;0.70;;
21036;SDS011;10677;50.942;4.028;2022-09-16T14:41:55;2.17;;;0.60;;
21036;SDS011;10677;50.942;4.028;2022-09-16T14:47:05;5.80;;;0.60;;
21036;SDS011;10677;50.942;4.028;2022-09-16T14:49:43;2.55;;;0.60;;
21036;SDS011;10677;50.942;4.028;2022-09-16T14:52:18;3.78;;;0.60;;
21036;SDS011;10677;50.942;4.028;2022-09-16T14:54:46;3.13;;;0.50;;
21036;SDS011;10677;50.942;4.028;2022-09-16T14:57:19;1.73;;;0.68;;
21036;SDS011;10677;50.942;4.028;2022-09-16T14:59:49;2.97;;;0.45;;
21036;SDS011;10677;50.942;4.028;2022-09-16T15:02:36;3.50;;;0.63;;
21036;SDS011;10677;50.942;4.028;2022-09-16T15:07:49;6.18;;;0.50;;
21036;SDS011;10677;50.942;4.028;2022-09-16T15:10:21;4.20;;;0.50;;
21036;SDS011;10677;50.942;4.028;2022-09-16T15:12:53;5.22;;;0.57;;
21036;SDS011;10677;50.942;4.028;2022-09-16T15:15:23;3.22;;;0.52;;
21036;SDS011;10677;50.942;4.028;2022-09-16T15:17:52;5.22;;;0.80;;
21036;SDS011;10677;50.942;4.028;2022-09-16T15:20:25;5.57;;;0.85;;
21036;SDS011;10677;50.942;4.028;2022-09-16T15:22:53;3.58;;;0.60;;
21036;SDS011;10677;50.942;4.028;2022-09-16T15:25:24;2.92;;;0.60;;
21036;SDS011;10677;50.942;4.028;2022-09-16T15:28:03;5.03;;;0.90;;
21036;SDS011;10677;50.942;4.028;2022-09-16T15:30:30;3.65;;;1.42;;
21036;SDS011;10677;50.942;4.028;2022-09-16T15:32:56;5.22;;;1.90;;
21036;SDS011;10677;50.942;4.028;2022-09-16T15:35:22;4.47;;;1.75;;
21036;SDS011;10677;50.942;4.028;2022-09-16T15:37:50;4.32;;;1.55;;
21036;SDS011;10677;50.942;4.028;2022-09-16T15:40:21;7.53;;;1.30;;
21036;SDS011;10677;50.942;4.028;2022-09-16T15:45:26;5.00;;;0.90;;
21036;SDS011;10677;50.942;4.028;2022-09-16T15:47:54;4.38;;;0.43;;
21036;SDS011;10677;50.942;4.028;2022-09-16T15:50:24;2.83;;;0.55;;
21036;SDS011;10677;50.942;4.028;2022-09-16T15:55:36;2.63;;;0.50;;
21036;SDS011;10677;50.942;4.028;2022-09-16T15:58:18;3.03;;;0.60;;
21036;SDS011;10677;50.942;4.028;2022-09-16T16:06:42;2.10;;;0.40;;
21036;SDS011;10677;50.942;4.028;2022-09-16T16:14:19;5.72;;;0.60;;
21036;SDS011;10677;50.942;4.028;2022-09-16T16:16:47;2.53;;;0.50;;
21036;SDS011;10677;50.942;4.028;2022-09-16T16:19:12;2.65;;;0.80;;
21036;SDS011;10677;50.942;4.028;2022-09-16T16:21:39;4.95;;;0.95;;
21036;SDS011;10677;50.942;4.028;2022-09-16T16:24:10;3.17;;;0.70;;
21036;SDS011;10677;50.942;4.028;2022-09-16T16:26:36;3.30;;;0.68;;
21036;SDS011;10677;50.942;4.028;2022-09-16T16:29:02;6.10;;;0.60;;
21036;SDS011;10677;50.942;4.028;2022-09-16T16:31:27;5.85;;;0.68;;
21036;SDS011;10677;50.942;4.028;2022-09-16T16:33:53;13.23;;;1.35;;
21036;SDS011;10677;50.942;4.028;2022-09-16T16:36:19;6.13;;;1.30;;
21036;SDS011;10677;50.942;4.028;2022-09-16T16:38:46;4.88;;;0.95;;
21036;SDS011;10677;50.942;4.028;2022-09-16T16:41:12;4.10;;;0.60;;
21036;SDS011;10677;50.942;4.028;2022-09-16T16:43:44;4.03;;;0.80;;
21036;SDS011;10677;50.942;4.028;2022-09-16T16:46:09;3.92;;;0.93;;
21036;SDS011;10677;50.942;4.028;2022-09-16T16:48:35;3.05;;;0.50;;
21036;SDS011;10677;50.942;4.028;2022-09-16T16:51:02;2.90;;;0.70;;
21036;SDS011;10677;50.942;4.028;2022-09-16T16:53:33;2.28;;;0.60;;
21036;SDS011;10677;50.942;4.028;2022-09-16T16:56:06;2.83;;;0.60;;
21036;SDS011;10677;50.942;4.028;2022-09-16T16:58:37;3.13;;;1.02;;
21036;SDS011;10677;50.942;4.028;2022-09-16T17:01:14;6.60;;;0.60;;
21036;SDS011;10677;50.942;4.028;2022-09-16T17:03:41;2.88;;;0.88;;
21036;SDS011;10677;50.942;4.028;2022-09-16T17:06:09;3.95;;;0.70;;
21036;SDS011;10677;50.942;4.028;2022-09-16T17:08:34;4.20;;;0.57;;
21036;SDS011;10677;50.942;4.028;2022-09-16T17:11:14;2.05;;;0.40;;
21036;SDS011;10677;50.942;4.028;2022-09-16T17:13:42;3.50;;;0.68;;
21036;SDS011;10677;50.942;4.028;2022-09-16T17:16:11;3.67;;;0.75;;
21036;SDS011;10677;50.942;4.028;2022-09-16T17:18:38;4.03;;;1.00;;
21036;SDS011;10677;50.942;4.028;2022-09-16T17:21:06;3.72;;;0.70;;
21036;SDS011;10677;50.942;4.028;2022-09-16T17:23:33;3.25;;;1.42;;
21036;SDS011;10677;50.942;4.028;2022-09-16T17:25:59;3.78;;;0.75;;
21036;SDS011;10677;50.942;4.028;2022-09-16T17:28:25;5.45;;;1.30;;
21036;SDS011;10677;50.942;4.028;2022-09-16T17:30:51;8.07;;;1.77;;
21036;SDS011;10677;50.942;4.028;2022-09-16T17:33:17;9.68;;;3.72;;
21036;SDS011;10677;50.942;4.028;2022-09-16T17:35:42;6.82;;;3.70;;
21036;SDS011;10677;50.942;4.028;2022-09-16T17:38:08;5.15;;;1.33;;
21036;SDS011;10677;50.942;4.028;2022-09-16T17:40:34;6.68;;;2.42;;
21036;SDS011;10677;50.942;4.028;2022-09-16T17:43:00;4.20;;;1.40;;
21036;SDS011;10677;50.942;4.028;2022-09-16T17:45:26;5.97;;;1.23;;
21036;SDS011;10677;50.942;4.028;2022-09-16T17:47:52;5.57;;;1.17;;
21036;SDS011;10677;50.942;4.028;2022-09-16T17:50:17;3.40;;;1.33;;
21036;SDS011;10677;50.942;4.028;2022-09-16T17:52:43;9.68;;;3.08;;
21036;SDS011;10677;50.942;4.028;2022-09-16T17:55:09;10.13;;;4.38;;
21036;SDS011;10677;50.942;4.028;2022-09-16T17:57:35;9.93;;;3.80;;
21036;SDS011;10677;50.942;4.028;2022-09-16T18:00:02;9.82;;;4.28;;
21036;SDS011;10677;50.942;4.028;2022-09-16T18:02:28;3.88;;;1.08;;
21036;SDS011;10677;50.942;4.028;2022-09-16T18:04:54;7.13;;;2.55;;
21036;SDS011;10677;50.942;4.028;2022-09-16T18:07:19;4.32;;;1.70;;
21036;SDS011;10677;50.942;4.028;2022-09-16T18:09:45;4.80;;;1.00;;
21036;SDS011;10677;50.942;4.028;2022-09-16T18:12:10;4.35;;;1.02;;
21036;SDS011;10677;50.942;4.028;2022-09-16T18:14:36;7.10;;;1.33;;
21036;SDS011;10677;50.942;4.028;2022-09-16T18:17:02;4.85;;;1.10;;
21036;SDS011;10677;50.942;4.028;2022-09-16T18:19:27;5.20;;;0.85;;
21036;SDS011;10677;50.942;4.028;2022-09-16T18:21:53;5.38;;;0.68;;
21036;SDS011;10677;50.942;4.028;2022-09-16T18:24:19;5.43;;;0.90;;
21036;SDS011;10677;50.942;4.028;2022-09-16T18:26:44;5.95;;;1.30;;
21036;SDS011;10677;50.942;4.028;2022-09-16T18:29:12;7.82;;;0.93;;
21036;SDS011;10677;50.942;4.028;2022-09-16T18:31:39;7.43;;;1.33;;